Time;durP1;ratioP1;P1;durP2;ratioP2;P2;SDS_P1;SDS_P2;PMS_P1;PMS_P2;Temp;Humidity;BMP_temperature;BMP_pressure;BME280_temperature;BME280_humidity;BME280_pressure;Samples;Min_cycle;Max_cycle;Signal;HPM_P1;HPM_P2
2022/06/02 00:00:31;;;;;;;;;;;;;;;16.16;100.00;98262.59;1662680;85;25999;-85
2022/06/02 00:03:01;;;;;;;;;;;;;;;16.10;100.00;98264.48;1663382;84;20473;-85
2022/06/02 00:06:01;;;;;;;;;;;;;;;16.06;100.00;98269.23;1663856;85;20398;-84
2022/06/02 00:08:28;;;;;;;;;;;;;;;16.03;100.00;98266.06;1663762;86;25137;-84
2022/06/02 00:10:56;;;;;;;;;;;;;;;15.99;100.00;98270.78;1666540;84;21946;-84
2022/06/02 00:13:35;;;;;;;;;;;;;;;15.99;100.00;98269.47;1663418;84;26203;-88
2022/06/02 00:16:03;;;;;;;;;;;;;;;16.02;100.00;98275.80;1647658;85;24400;-85
2022/06/02 00:18:30;;;;;;;;;;;;;;;16.05;100.00;98278.13;1663362;84;20233;-84
2022/06/02 00:20:58;;;;;;;;;;;;;;;16.07;100.00;98277.51;1666746;84;24942;-84
2022/06/02 00:26:29;;;;;;;;;;;;;;;16.08;100.00;98272.58;1658769;85;26033;-84
2022/06/02 00:28:56;;;;;;;;;;;;;;;16.13;100.00;98263.73;1607798;89;24426;-84
2022/06/02 00:31:28;;;;;;;;;;;;;;;16.14;100.00;98258.80;1663204;86;20211;-84
2022/06/02 00:33:59;;;;;;;;;;;;;;;16.16;100.00;98246.75;1663412;84;25103;-85
2022/06/02 00:36:45;;;;;;;;;;;;;;;16.20;100.00;98244.17;1611964;87;21986;-88
2022/06/02 00:39:13;;;;;;;;;;;;;;;16.23;100.00;98247.83;1615436;87;26081;-85
2022/06/02 00:42:00;;;;;;;;;;;;;;;16.24;100.00;98262.22;1663814;84;24498;-84
2022/06/02 00:44:31;;;;;;;;;;;;;;;16.24;100.00;98274.58;1662128;85;20296;-88
2022/06/02 00:47:01;;;;;;;;;;;;;;;16.19;100.00;98282.11;1660188;86;25196;-88
2022/06/02 00:49:31;;;;;;;;;;;;;;;16.13;100.00;98294.09;1662340;84;22548;-84
2022/06/02 00:51:59;;;;;;;;;;;;;;;16.09;100.00;98294.02;1640734;86;26008;-83
2022/06/02 00:57:31;;;;;;;;;;;;;;;16.08;100.00;98280.98;1639523;86;20286;-85
2022/06/02 00:59:58;;;;;;;;;;;;;;;16.06;100.00;98274.52;1660504;86;24965;-84
2022/06/02 01:02:26;;;;;;;;;;;;;;;16.03;100.00;98284.06;1661531;86;21996;-88
2022/06/02 01:04:54;;;;;;;;;;;;;;;15.99;100.00;98289.27;1660937;85;26094;-88
2022/06/02 01:07:37;;;;;;;;;;;;;;;15.94;100.00;98286.23;1661475;86;24542;-85
2022/06/02 01:10:22;;;;;;;;;;;;;;;15.87;100.00;98276.72;1661850;85;20259;-88
2022/06/02 01:12:49;;;;;;;;;;;;;;;15.83;100.00;98273.20;1611542;87;25035;-88
2022/06/02 01:15:26;;;;;;;;;;;;;;;15.80;100.00;98280.94;1608737;86;22075;-88
2022/06/02 01:17:53;;;;;;;;;;;;;;;15.76;100.00;98276.93;1660997;86;26084;-84
2022/06/02 01:20:37;;;;;;;;;;;;;;;15.73;100.00;98275.88;1659588;86;24454;-88
2022/06/02 01:23:21;;;;;;;;;;;;;;;15.71;100.00;98280.97;1658495;86;20281;-84
2022/06/02 01:26:01;;;;;;;;;;;;;;;15.70;100.00;98284.58;1661764;86;25136;-85
2022/06/02 01:28:41;;;;;;;;;;;;;;;15.69;100.00;98288.19;1655582;86;22069;-85
2022/06/02 01:31:11;;;;;;;;;;;;;;;15.65;100.00;98285.50;1654911;86;25982;-88
2022/06/02 01:33:45;;;;;;;;;;;;;;;15.63;100.00;98284.80;1654267;86;25955;-85
2022/06/02 01:36:19;;;;;;;;;;;;;;;15.60;100.00;98289.05;1654940;86;20290;-86
2022/06/02 01:38:46;;;;;;;;;;;;;;;15.61;100.00;98293.33;1655013;86;25668;-89
2022/06/02 01:41:20;;;;;;;;;;;;;;;15.59;100.00;98282.94;1657297;86;22097;-89
2022/06/02 01:43:58;;;;;;;;;;;;;;;15.62;100.00;98264.66;1603076;88;25975;-85
2022/06/02 01:46:26;;;;;;;;;;;;;;;15.67;100.00;98267.70;1640762;86;25158;-85
2022/06/02 01:48:56;;;;;;;;;;;;;;;15.68;100.00;98272.84;1612824;88;20537;-88
2022/06/02 01:51:34;;;;;;;;;;;;;;;15.67;100.00;98274.30;1605577;87;25040;-90
2022/06/02 01:54:08;;;;;;;;;;;;;;;15.64;100.00;98277.23;1633572;86;22596;-90
2022/06/02 01:56:49;;;;;;;;;;;;;;;15.62;100.00;98269.45;1635304;86;26017;-86
2022/06/02 01:59:20;;;;;;;;;;;;;;;15.64;100.00;98252.17;1634369;86;24444;-87
2022/06/02 02:02:07;;;;;;;;;;;;;;;15.65;100.00;98247.24;1639703;86;20367;-89
2022/06/02 02:04:35;;;;;;;;;;;;;;;15.63;100.00;98249.18;1637227;86;24968;-86
2022/06/02 02:07:12;;;;;;;;;;;;;;;15.61;100.00;98243.20;1631737;86;22177;-87
2022/06/02 02:09:55;;;;;;;;;;;;;;;15.59;100.00;98233.30;1632172;86;26047;-89
2022/06/02 02:12:25;;;;;;;;;;;;;;;15.52;100.00;98238.31;1606059;87;24633;-86
2022/06/02 02:15:12;;;;;;;;;;;;;;;15.50;100.00;98225.71;1613788;87;20364;-85
2022/06/02 02:17:43;;;;;;;;;;;;;;;15.52;100.00;98222.48;1606317;88;24616;-86
2022/06/02 02:20:23;;;;;;;;;;;;;;;15.58;100.00;98217.13;1596697;89;22155;-85
2022/06/02 02:23:09;;;;;;;;;;;;;;;15.64;100.00;98215.23;1655341;84;26060;-86
2022/06/02 02:25:37;;;;;;;;;;;;;;;15.64;100.00;98213.91;1662245;84;24604;-89
2022/06/02 02:28:14;;;;;;;;;;;;;;;15.62;100.00;98208.78;1665778;84;20186;-85
2022/06/02 02:30:44;;;;;;;;;;;;;;;15.59;100.00;98204.29;1666207;84;24960;-86
2022/06/02 02:33:18;;;;;;;;;;;;;;;15.56;100.00;98200.12;1610110;86;22055;-86
2022/06/02 02:35:55;;;;;;;;;;;;;;;15.50;100.00;98200.17;1635480;86;25965;-86
2022/06/02 02:38:35;;;;;;;;;;;;;;;15.46;100.00;98204.08;1636711;86;24598;-85
2022/06/02 02:41:03;;;;;;;;;;;;;;;15.47;100.00;98196.52;1605981;87;20453;-85
2022/06/02 02:43:46;;;;;;;;;;;;;;;15.47;100.00;98189.92;1610297;87;25738;-88
2022/06/02 02:46:18;;;;;;;;;;;;;;;15.42;100.00;98188.20;1617124;87;21984;-85
2022/06/02 02:49:04;;;;;;;;;;;;;;;15.43;100.00;98177.17;1631421;86;26599;-86
2022/06/02 02:51:44;;;;;;;;;;;;;;;15.47;100.00;98169.31;1651936;85;24497;-85
2022/06/02 02:54:28;;;;;;;;;;;;;;;15.44;100.00;98177.01;1610714;88;20290;-86
2022/06/02 02:57:01;;;;;;;;;;;;;;;15.46;100.00;98176.39;1609932;87;25040;-85
2022/06/02 02:59:45;;;;;;;;;;;;;;;15.46;100.00;98174.23;1605393;89;22068;-85
2022/06/02 03:02:23;;;;;;;;;;;;;;;15.54;100.00;98183.62;1576402;87;26008;-89
2022/06/02 03:05:03;;;;;;;;;;;;;;;15.61;100.00;98183.37;1607116;87;24446;-85
2022/06/02 03:07:29;;;;;;;;;;;;;;;15.70;100.00;98196.20;1607406;87;20223;-85
2022/06/02 03:09:59;;;;;;;;;;;;;;;15.71;100.00;98213.70;1607082;88;20545;-84
2022/06/02 03:12:27;;;;;;;;;;;;;;;15.62;100.00;98218.01;1634201;86;22124;-88
2022/06/02 03:15:10;;;;;;;;;;;;;;;15.56;100.00;98213.30;1632535;86;26114;-86
2022/06/02 03:17:48;;;;;;;;;;;;;;;15.59;100.00;98213.03;1633780;86;25203;-84
2022/06/02 03:20:34;;;;;;;;;;;;;;;15.72;100.00;98213.52;1606034;88;20359;-86
2022/06/02 03:23:06;;;;;;;;;;;;;;;15.87;100.00;98215.23;1648031;86;25036;-86
2022/06/02 03:25:40;;;;;;;;;;;;;;;16.01;100.00;98216.05;1656561;86;22100;-84
2022/06/02 03:28:16;;;;;;;;;;;;;;;16.06;100.00;98217.76;1612038;87;26193;-84
2022/06/02 03:30:44;;;;;;;;;;;;;;;16.09;100.00;98222.73;1649977;85;24510;-85
2022/06/02 03:33:27;;;;;;;;;;;;;;;16.09;100.00;98225.89;1634579;86;20275;-86
2022/06/02 03:36:13;;;;;;;;;;;;;;;16.11;100.00;98216.83;1647879;86;25045;-85
2022/06/02 03:38:44;;;;;;;;;;;;;;;16.19;100.00;98227.98;1647971;85;22093;-88
2022/06/02 03:41:28;;;;;;;;;;;;;;;16.21;100.00;98222.88;1644084;86;26041;-86
2022/06/02 03:43:59;;;;;;;;;;;;;;;16.20;100.00;98224.38;1645101;86;24438;-88
2022/06/02 03:46:43;;;;;;;;;;;;;;;16.19;100.00;98230.14;1610528;87;20235;-88
2022/06/02 03:49:29;;;;;;;;;;;;;;;16.17;100.00;98223.33;1611804;87;25142;-88
2022/06/02 03:51:59;;;;;;;;;;;;;;;16.22;100.00;98218.44;1633925;86;21996;-85
2022/06/02 03:54:44;;;;;;;;;;;;;;;16.27;100.00;98220.98;1633458;86;25990;-87
2022/06/02 03:57:13;;;;;;;;;;;;;;;16.24;100.00;98217.81;1582136;89;20239;-87
2022/06/02 03:59:56;;;;;;;;;;;;;;;16.18;100.00;98216.59;1644080;86;20224;-87
2022/06/02 04:02:27;;;;;;;;;;;;;;;16.13;100.00;98230.72;1606800;86;25040;-86
2022/06/02 04:04:58;;;;;;;;;;;;;;;16.12;100.00;98236.14;1635887;87;21934;-83
2022/06/02 04:07:42;;;;;;;;;;;;;;;16.07;100.00;98235.27;1641718;86;26039;-83
2022/06/02 04:10:25;;;;;;;;;;;;;;;16.07;100.00;98236.59;1649475;86;24529;-87
2022/06/02 04:15:45;;;;;;;;;;;;;;;16.01;100.00;98240.29;1612791;88;25034;-87
2022/06/02 04:18:28;;;;;;;;;;;;;;;15.98;100.00;98240.11;1649443;85;22609;-87
2022/06/02 04:21:12;;;;;;;;;;;;;;;15.99;100.00;98245.71;1641940;86;26061;-83
2022/06/02 04:23:58;;;;;;;;;;;;;;;15.98;100.00;98252.47;1634245;86;24394;-84
2022/06/02 04:26:41;;;;;;;;;;;;;;;15.99;100.00;98254.95;1606350;87;20765;-83
2022/06/02 04:29:21;;;;;;;;;;;;;;;16.04;100.00;98255.86;1646646;85;25041;-83
2022/06/02 04:31:52;;;;;;;;;;;;;;;16.06;100.00;98259.16;1645772;86;22089;-83
2022/06/02 04:34:26;;;;;;;;;;;;;;;16.08;100.00;98256.73;1610572;87;26014;-87
2022/06/02 04:36:53;;;;;;;;;;;;;;;16.10;100.00;98261.84;1609414;88;24501;-83
2022/06/02 04:39:33;;;;;;;;;;;;;;;16.16;100.00;98255.98;1641172;85;20487;-85
2022/06/02 04:42:10;;;;;;;;;;;;;;;16.22;100.00;98260.20;1636078;87;25071;-83
2022/06/02 04:44:38;;;;;;;;;;;;;;;16.29;100.00;98262.60;1636331;86;22009;-84
2022/06/02 04:47:22;;;;;;;;;;;;;;;16.31;100.00;98263.75;1661804;85;26686;-83
2022/06/02 04:49:59;;;;;;;;;;;;;;;16.27;100.00;98267.67;1660177;84;24125;-84
2022/06/02 04:52:33;;;;;;;;;;;;;;;16.27;100.00;98263.23;1661747;84;20211;-84
2022/06/02 04:55:12;;;;;;;;;;;;;;;16.33;100.00;98278.48;1660247;85;24956;-84
2022/06/02 04:57:56;;;;;;;;;;;;;;;16.40;100.00;98285.83;1659788;85;22021;-83
2022/06/02 05:00:36;;;;;;;;;;;;;;;16.43;100.00;98285.03;1660331;84;26102;-87
2022/06/02 05:03:04;;;;;;;;;;;;;;;16.44;100.00;98286.70;1661535;84;21277;-85
2022/06/02 05:05:40;;;;;;;;;;;;;;;16.50;100.00;98286.60;1659695;85;20207;-84
2022/06/02 05:08:08;;;;;;;;;;;;;;;16.50;100.00;98282.16;1662024;84;24694;-84
2022/06/02 05:10:52;;;;;;;;;;;;;;;16.54;100.00;98281.36;1661117;84;22072;-87
2022/06/02 05:13:29;;;;;;;;;;;;;;;16.68;100.00;98286.19;1659367;84;26244;-85
2022/06/02 05:16:13;;;;;;;;;;;;;;;16.84;100.00;98289.00;1661841;85;24039;-84
2022/06/02 05:18:41;;;;;;;;;;;;;;;16.94;100.00;98290.24;1659716;84;20292;-85
2022/06/02 05:21:15;;;;;;;;;;;;;;;17.08;100.00;98294.99;1661839;84;25086;-88
2022/06/02 05:23:51;;;;;;;;;;;;;;;17.14;100.00;98286.45;1659126;84;22061;-85
2022/06/02 05:26:22;;;;;;;;;;;;;;;17.12;100.00;98283.98;1661801;84;26221;-85
2022/06/02 05:28:56;;;;;;;;;;;;;;;17.22;100.00;98293.16;1661723;84;24438;-85
2022/06/02 05:31:42;;;;;;;;;;;;;;;17.34;100.00;98296.40;1661709;85;20260;-85
2022/06/02 05:34:19;;;;;;;;;;;;;;;17.38;100.00;98294.61;1660938;85;25183;-83
2022/06/02 05:36:56;;;;;;;;;;;;;;;17.50;100.00;98297.36;1662083;85;22080;-84
2022/06/02 05:39:23;;;;;;;;;;;;;;;17.67;100.00;98302.31;1659206;84;26224;-84
2022/06/02 05:41:57;;;;;;;;;;;;;;;17.79;100.00;98306.34;1659669;84;24517;-85
2022/06/02 05:44:43;;;;;;;;;;;;;;;17.86;100.00;98306.06;1661844;85;20661;-85
2022/06/02 05:47:29;;;;;;;;;;;;;;;17.90;100.00;98310.06;1663235;84;24956;-87
2022/06/02 05:49:56;;;;;;;;;;;;;;;17.93;100.00;98314.22;1611628;87;22056;-87
2022/06/02 05:52:24;;;;;;;;;;;;;;;17.93;100.00;98318.20;1611019;88;26151;-88
2022/06/02 05:54:55;;;;;;;;;;;;;;;17.95;100.00;98318.36;1612490;88;24587;-88
2022/06/02 05:57:26;;;;;;;;;;;;;;;18.01;100.00;98325.34;1605304;87;20516;-87
2022/06/02 06:00:11;;;;;;;;;;;;;;;18.01;100.00;98324.84;1631267;86;25200;-87
2022/06/02 06:02:55;;;;;;;;;;;;;;;18.03;100.00;98327.34;1633808;86;21953;-87
2022/06/02 06:05:42;;;;;;;;;;;;;;;18.04;100.00;98327.69;1611437;86;22786;-83
2022/06/02 06:08:14;;;;;;;;;;;;;;;18.02;100.00;98329.16;1633452;86;24690;-84
2022/06/02 06:10:58;;;;;;;;;;;;;;;18.03;100.00;98328.67;1633571;86;20253;-84
2022/06/02 06:13:31;;;;;;;;;;;;;;;18.05;100.00;98330.69;1633752;86;25065;-86
2022/06/02 06:16:02;;;;;;;;;;;;;;;18.07;100.00;98329.52;1632848;86;22785;-84
2022/06/02 06:18:38;;;;;;;;;;;;;;;18.11;100.00;98332.19;1630951;86;23022;-84
2022/06/02 06:21:12;;;;;;;;;;;;;;;18.14;100.00;98333.22;1633294;86;25100;-83
2022/06/02 06:23:45;;;;;;;;;;;;;;;18.22;100.00;98349.66;1605164;87;20219;-84
2022/06/02 06:26:28;;;;;;;;;;;;;;;18.22;100.00;98358.41;1606226;88;24970;-84
2022/06/02 06:29:13;;;;;;;;;;;;;;;18.21;100.00;98364.72;1634134;86;22064;-84
2022/06/02 06:31:45;;;;;;;;;;;;;;;18.18;100.00;98373.45;1611490;87;22253;-84
2022/06/02 06:34:19;;;;;;;;;;;;;;;18.21;100.00;98379.78;1609394;86;24427;-85
2022/06/02 06:37:03;;;;;;;;;;;;;;;18.22;100.00;98386.23;1608130;87;20255;-85
2022/06/02 06:39:48;;;;;;;;;;;;;;;18.22;100.00;98387.55;1634184;86;24889;-84
2022/06/02 06:42:25;;;;;;;;;;;;;;;18.31;100.00;98392.42;1611914;87;22056;-83
2022/06/02 06:45:04;;;;;;;;;;;;;;;18.40;100.00;98398.93;1614522;86;25822;-83
2022/06/02 06:47:35;;;;;;;;;;;;;;;18.48;100.00;98398.16;1629477;86;24616;-83
2022/06/02 06:50:05;;;;;;;;;;;;;;;18.51;100.00;98404.45;1607960;87;20360;-83
2022/06/02 06:52:37;;;;;;;;;;;;;;;18.54;100.00;98407.30;1607017;89;40005;-83
2022/06/02 06:55:05;;;;;;;;;;;;;;;18.54;100.00;98412.14;1634257;86;22005;-88
2022/06/02 06:57:32;;;;;;;;;;;;;;;18.59;100.00;98424.91;1633977;86;26169;-85
2022/06/02 07:00:08;;;;;;;;;;;;;;;18.60;100.00;98417.30;1634195;86;20871;-84
2022/06/02 07:02:35;;;;;;;;;;;;;;;18.62;100.00;98420.61;1634540;86;20242;-86
2022/06/02 07:05:03;;;;;;;;;;;;;;;18.63;100.00;98416.97;1633879;86;25083;-84
2022/06/02 07:07:37;;;;;;;;;;;;;;;18.61;100.00;98416.28;1666187;84;21961;-83
2022/06/02 07:10:04;;;;;;;;;;;;;;;18.50;100.00;98418.69;1657277;85;122055;-83
2022/06/02 07:12:50;;;;;;;;;;;;;;;18.42;100.00;98423.13;1669343;84;24497;-87
2022/06/02 07:15:18;;;;;;;;;;;;;;;18.39;100.00;98436.17;1635280;86;20387;-82
2022/06/02 07:17:49;;;;;;;;;;;;;;;18.33;100.00;98436.30;1616134;88;24519;-83
2022/06/02 07:20:17;;;;;;;;;;;;;;;18.39;100.00;98436.17;1625138;86;21514;-83
2022/06/02 07:23:00;;;;;;;;;;;;;;;18.51;100.00;98445.53;1647189;85;26085;-83
2022/06/02 07:25:31;;;;;;;;;;;;;;;18.68;100.00;98442.02;1633787;86;24548;-88
2022/06/02 07:27:58;;;;;;;;;;;;;;;18.79;100.00;98453.68;1634250;86;20249;-85
2022/06/02 07:30:46;;;;;;;;;;;;;;;18.76;100.00;98450.00;1648170;86;25079;-84
2022/06/02 07:33:32;;;;;;;;;;;;;;;18.71;100.00;98452.30;1648658;86;22111;-88
2022/06/02 07:36:16;;;;;;;;;;;;;;;18.76;100.00;98453.17;1615823;87;25916;-88
2022/06/02 07:38:47;;;;;;;;;;;;;;;18.83;100.00;98455.50;1607653;87;24600;-88
2022/06/02 07:41:21;;;;;;;;;;;;;;;18.89;100.00;98460.67;1634174;86;20335;-83
2022/06/02 07:43:52;;;;;;;;;;;;;;;18.83;100.00;98466.11;1633552;86;25125;-84
2022/06/02 07:46:22;;;;;;;;;;;;;;;18.73;100.00;98468.89;1628010;86;21915;-87
2022/06/02 07:48:59;;;;;;;;;;;;;;;18.71;100.00;98478.01;1606996;87;26174;-84
2022/06/02 07:51:29;;;;;;;;;;;;;;;18.56;100.00;98483.03;1572814;90;25418;-85
2022/06/02 07:54:09;;;;;;;;;;;;;;;18.51;100.00;98490.59;1639836;85;20213;-85
2022/06/02 07:56:49;;;;;;;;;;;;;;;18.48;100.00;98496.70;1639875;86;25082;-85
2022/06/02 07:59:40;;;;;;;;;;;;;;;18.38;100.00;98502.91;1644759;86;21999;-85
2022/06/02 08:02:23;;;;;;;;;;;;;;;18.28;100.00;98504.83;1648005;86;26004;-88
2022/06/02 08:05:06;;;;;;;;;;;;;;;18.19;100.00;98509.73;1614662;86;24525;-84
2022/06/02 08:07:33;;;;;;;;;;;;;;;18.25;100.00;98507.80;1640337;86;20347;-84
2022/06/02 08:10:04;;;;;;;;;;;;;;;18.35;100.00;98514.33;1643719;86;25034;-85
2022/06/02 08:12:32;;;;;;;;;;;;;;;18.39;100.00;98513.02;1600451;86;21975;-88
2022/06/02 08:14:59;;;;;;;;;;;;;;;18.47;100.00;98518.89;1642557;86;26073;-88
2022/06/02 08:17:43;;;;;;;;;;;;;;;18.55;100.00;98523.77;1646663;86;25211;-84
2022/06/02 08:20:11;;;;;;;;;;;;;;;18.66;100.00;98530.63;1639718;86;20533;-84
2022/06/02 08:22:47;;;;;;;;;;;;;;;18.67;100.00;98538.45;1638512;86;27018;-88
2022/06/02 08:25:14;;;;;;;;;;;;;;;18.76;100.00;98540.67;1645365;86;22005;-85
2022/06/02 08:27:54;;;;;;;;;;;;;;;18.75;100.00;98543.81;1640758;86;26849;-84
2022/06/02 08:30:27;;;;;;;;;;;;;;;18.82;100.00;98547.17;1639917;86;24549;-85
2022/06/02 08:33:07;;;;;;;;;;;;;;;18.87;100.00;98551.52;1641110;84;20312;-85
2022/06/02 08:35:52;;;;;;;;;;;;;;;18.87;100.00;98551.02;1638773;86;25012;-85
2022/06/02 08:38:20;;;;;;;;;;;;;;;18.89;100.00;98559.63;1643278;85;22113;-84
2022/06/02 08:41:28;;;;;;;;;;;;;;;18.99;100.00;98558.19;1640654;86;26104;-84
2022/06/02 08:43:43;;;;;;;;;;;;;;;19.14;100.00;98564.60;1647629;86;24515;-85
2022/06/02 08:46:14;;;;;;;;;;;;;;;19.31;100.00;98557.55;1641915;86;20173;-84
2022/06/02 08:48:45;;;;;;;;;;;;;;;19.52;100.00;98560.66;1653344;86;25019;-84
2022/06/02 08:51:12;;;;;;;;;;;;;;;19.61;100.00;98555.20;1652934;86;22638;-88
2022/06/02 08:53:43;;;;;;;;;;;;;;;19.66;100.00;98561.36;1586147;88;26306;-84
2022/06/02 08:56:27;;;;;;;;;;;;;;;19.66;100.00;98561.84;1650709;86;24405;-84
2022/06/02 08:59:04;;;;;;;;;;;;;;;19.74;100.00;98564.55;1652774;86;20306;-83
2022/06/02 09:01:31;;;;;;;;;;;;;;;19.80;100.00;98567.89;1654109;84;25680;-84
2022/06/02 09:04:16;;;;;;;;;;;;;;;19.80;100.00;98568.69;1587073;89;21732;-84
2022/06/02 09:06:44;;;;;;;;;;;;;;;19.90;100.00;98574.72;1655238;86;26021;-84
2022/06/02 09:09:30;;;;;;;;;;;;;;;20.03;100.00;98570.24;1648972;85;25239;-85
2022/06/02 09:11:57;;;;;;;;;;;;;;;19.97;100.00;98566.41;1650378;85;20202;-86
2022/06/02 09:14:25;;;;;;;;;;;;;;;20.04;100.00;98566.10;1653526;86;24960;-85
2022/06/02 09:16:56;;;;;;;;;;;;;;;20.24;100.00;98565.28;1653930;86;21998;-89
2022/06/02 09:19:28;;;;;;;;;;;;;;;20.35;100.00;98567.65;1654440;86;26046;-84
2022/06/02 09:22:14;;;;;;;;;;;;;;;20.38;100.00;98570.00;1650825;86;24450;-84
2022/06/02 09:24:47;;;;;;;;;;;;;;;20.41;100.00;98575.46;1592785;88;20326;-88
2022/06/02 09:27:19;;;;;;;;;;;;;;;20.41;100.00;98576.80;1652687;86;25168;-89
2022/06/02 09:30:05;;;;;;;;;;;;;;;20.36;100.00;98578.63;1654271;86;22108;-89
2022/06/02 09:32:46;;;;;;;;;;;;;;;20.31;100.00;98579.62;1654846;85;26688;-84
2022/06/02 09:35:16;;;;;;;;;;;;;;;20.42;100.00;98574.47;1653482;86;25057;-85
2022/06/02 09:37:44;;;;;;;;;;;;;;;20.44;100.00;98577.81;1587132;89;20253;-85
2022/06/02 09:40:19;;;;;;;;;;;;;;;20.48;100.00;98577.80;1653382;85;25084;-85
2022/06/02 09:42:56;;;;;;;;;;;;;;;20.45;100.00;98574.99;1654962;86;22099;-85
2022/06/02 09:45:41;;;;;;;;;;;;;;;20.50;100.00;98576.31;1653129;85;26017;-89
2022/06/02 09:48:12;;;;;;;;;;;;;;;20.31;100.00;98574.30;1640234;86;24550;-89
2022/06/02 09:50:46;;;;;;;;;;;;;;;20.35;100.00;98573.46;1647172;86;20271;-86
2022/06/02 09:53:16;;;;;;;;;;;;;;;20.41;100.00;98579.45;1660554;84;25006;-89
2022/06/02 09:55:44;;;;;;;;;;;;;;;20.57;100.00;98571.97;1661187;85;21970;-86
2022/06/02 09:58:11;;;;;;;;;;;;;;;20.82;100.00;98570.97;1660806;84;26897;-85
2022/06/02 10:00:48;;;;;;;;;;;;;;;20.92;100.00;98569.45;1607927;87;24502;-88
2022/06/02 10:03:33;;;;;;;;;;;;;;;21.04;100.00;98570.27;1661082;84;20251;-84
2022/06/02 10:06:13;;;;;;;;;;;;;;;21.09;100.00;98570.59;1660941;84;25224;-89
2022/06/02 10:08:50;;;;;;;;;;;;;;;21.13;100.00;98574.56;1659467;85;22151;-89
2022/06/02 10:11:30;;;;;;;;;;;;;;;20.88;100.00;98577.78;1662603;85;25920;-85
2022/06/02 10:14:06;;;;;;;;;;;;;;;20.62;100.00;98572.33;1661172;85;24450;-85
2022/06/02 10:16:51;;;;;;;;;;;;;;;20.46;100.00;98571.80;1661251;85;20638;-85
2022/06/02 10:19:28;;;;;;;;;;;;;;;20.45;100.00;98577.66;1662365;84;24995;-84
2022/06/02 10:22:11;;;;;;;;;;;;;;;20.48;100.00;98576.97;1659484;85;22068;-85
2022/06/02 10:24:48;;;;;;;;;;;;;;;20.52;100.00;98580.95;1661473;85;26823;-84
2022/06/02 10:27:33;;;;;;;;;;;;;;;20.45;100.00;98584.30;1630962;86;24456;-85
2022/06/02 10:30:03;;;;;;;;;;;;;;;20.69;100.00;98583.94;1662106;84;20484;-85
2022/06/02 10:32:46;;;;;;;;;;;;;;;20.76;100.00;98580.95;1618359;86;25089;-85
2022/06/02 10:35:20;;;;;;;;;;;;;;;20.77;100.00;98580.80;1660948;84;21539;-85
2022/06/02 10:37:48;;;;;;;;;;;;;;;20.96;100.00;98583.58;1662177;85;26609;-84
2022/06/02 10:40:33;;;;;;;;;;;;;;;21.31;100.00;98584.20;1661231;84;24496;-84
2022/06/02 10:43:18;;;;;;;;;;;;;;;21.50;100.00;98568.64;1661374;84;20175;-84
2022/06/02 10:46:02;;;;;;;;;;;;;;;21.76;100.00;98571.03;1661239;85;25045;-85
2022/06/02 10:48:40;;;;;;;;;;;;;;;21.81;100.00;98572.67;1668240;84;22059;-85
2022/06/02 10:51:17;;;;;;;;;;;;;;;21.70;100.00;98577.06;1670889;84;26129;-85
2022/06/02 10:53:46;;;;;;;;;;;;;;;21.37;98.74;98579.02;1641788;85;20163;-85
2022/06/02 10:56:31;;;;;;;;;;;;;;;21.20;97.85;98587.56;1669919;85;20269;-85
2022/06/02 10:59:01;;;;;;;;;;;;;;;21.01;97.27;98587.89;1669647;85;25096;-85
2022/06/02 11:01:38;;;;;;;;;;;;;;;20.94;96.57;98579.44;1669815;85;21966;-85
2022/06/02 11:04:08;;;;;;;;;;;;;;;20.81;95.70;98578.61;1615445;87;26082;-88
2022/06/02 11:06:39;;;;;;;;;;;;;;;20.77;95.24;98570.15;1667520;85;24466;-89
2022/06/02 11:09:09;;;;;;;;;;;;;;;20.71;94.76;98577.47;1670340;85;20247;-89
2022/06/02 11:11:40;;;;;;;;;;;;;;;20.68;94.24;98584.44;1670260;85;24986;-84
2022/06/02 11:14:11;;;;;;;;;;;;;;;20.85;94.24;98577.27;1668891;85;21892;-84
2022/06/02 11:16:41;;;;;;;;;;;;;;;21.04;94.17;98576.09;1561007;90;26263;-85
2022/06/02 11:19:11;;;;;;;;;;;;;;;20.91;93.39;98576.59;1630590;85;24458;-85
2022/06/02 11:21:56;;;;;;;;;;;;;;;20.78;92.68;98573.64;1668338;85;20210;-85
2022/06/02 11:24:29;;;;;;;;;;;;;;;20.64;91.78;98579.12;1669724;85;24929;-86
2022/06/02 11:26:59;;;;;;;;;;;;;;;20.66;91.47;98571.82;1670295;84;21518;-84
2022/06/02 11:29:45;;;;;;;;;;;;;;;20.74;91.44;98577.12;1669205;85;26095;-89
2022/06/02 11:32:13;;;;;;;;;;;;;;;20.75;90.97;98575.30;1667619;84;24569;-89
2022/06/02 11:34:41;;;;;;;;;;;;;;;20.93;90.96;98574.61;1669786;85;20239;-89
2022/06/02 11:37:26;;;;;;;;;;;;;;;21.06;91.04;98580.22;1666831;85;25946;-87
2022/06/02 11:40:06;;;;;;;;;;;;;;;21.15;90.94;98578.42;1672371;85;22203;-89
2022/06/02 11:42:50;;;;;;;;;;;;;;;21.21;90.55;98583.90;1671052;85;26783;-88
2022/06/02 11:45:21;;;;;;;;;;;;;;;21.39;90.67;98578.83;1669266;85;24624;-89
2022/06/02 11:47:51;;;;;;;;;;;;;;;21.58;90.28;98575.77;1665868;85;20443;-86
2022/06/02 11:50:23;;;;;;;;;;;;;;;21.66;89.79;98578.39;1604055;87;25106;-86
2022/06/02 11:52:51;;;;;;;;;;;;;;;21.81;89.62;98572.67;1628851;87;22175;-85
2022/06/02 11:55:19;;;;;;;;;;;;;;;21.94;88.81;98568.95;1662752;84;26088;-85
2022/06/02 11:57:47;;;;;;;;;;;;;;;21.93;87.58;98563.78;1661687;84;24691;-85
2022/06/02 12:00:24;;;;;;;;;;;;;;;21.84;86.40;98558.98;1662531;84;20337;-89
2022/06/02 12:03:11;;;;;;;;;;;;;;;21.97;86.07;98570.45;1663691;85;24967;-85
2022/06/02 12:05:55;;;;;;;;;;;;;;;22.13;85.93;98565.02;1660161;84;22017;-84
2022/06/02 12:08:23;;;;;;;;;;;;;;;22.36;85.59;98565.02;1662093;84;26080;-85
2022/06/02 12:13:54;;;;;;;;;;;;;;;22.50;84.28;98569.56;1661740;84;20484;-84
2022/06/02 12:16:40;;;;;;;;;;;;;;;22.60;83.80;98576.80;1656466;84;25858;-89
2022/06/02 12:19:20;;;;;;;;;;;;;;;22.33;81.92;98564.02;1661448;84;22193;-89
2022/06/02 12:21:59;;;;;;;;;;;;;;;22.11;80.49;98563.84;1660952;84;26001;-84
2022/06/02 12:24:27;;;;;;;;;;;;;;;21.86;79.25;98578.30;1639169;84;24434;-83
2022/06/02 12:27:12;;;;;;;;;;;;;;;21.73;78.46;98571.87;1662404;85;20223;-84
2022/06/02 12:29:46;;;;;;;;;;;;;;;21.82;78.43;98568.17;1660869;84;25032;-83
2022/06/02 12:32:30;;;;;;;;;;;;;;;22.10;78.94;98568.84;1662114;86;21935;-84
2022/06/02 12:35:02;;;;;;;;;;;;;;;22.23;78.48;98572.77;1662221;85;26053;-83
2022/06/02 12:37:46;;;;;;;;;;;;;;;22.25;77.66;98564.93;1661219;84;25378;-88
2022/06/02 12:40:32;;;;;;;;;;;;;;;22.45;77.62;98567.44;1661746;84;20274;-89
2022/06/02 12:43:19;;;;;;;;;;;;;;;22.68;77.46;98566.08;1660591;84;25648;-88
2022/06/02 12:45:46;;;;;;;;;;;;;;;22.96;77.07;98564.18;1662439;84;22015;-88
2022/06/02 12:48:31;;;;;;;;;;;;;;;23.14;76.19;98567.30;1657748;85;25968;-88
2022/06/02 12:51:03;;;;;;;;;;;;;;;23.13;75.21;98575.82;1632707;87;42530;-88
2022/06/02 12:53:37;;;;;;;;;;;;;;;22.98;73.86;98572.81;1631389;87;20901;-85
2022/06/02 12:56:04;;;;;;;;;;;;;;;22.79;72.63;98565.67;1623227;87;25387;-84
2022/06/02 12:58:32;;;;;;;;;;;;;;;22.57;71.33;98566.51;1654431;86;22619;-85
2022/06/02 13:01:17;;;;;;;;;;;;;;;22.41;70.33;98563.48;1652466;86;26017;-86
2022/06/02 13:03:51;;;;;;;;;;;;;;;22.56;70.48;98568.84;1655437;85;24453;-85
2022/06/02 13:06:18;;;;;;;;;;;;;;;22.82;70.77;98563.97;1653323;85;20302;-85
2022/06/02 13:08:50;;;;;;;;;;;;;;;23.03;71.15;98555.74;1651905;86;25066;-86
2022/06/02 13:11:38;;;;;;;;;;;;;;;23.18;71.20;98556.61;1620403;86;22063;-88
2022/06/02 13:14:22;;;;;;;;;;;;;;;23.27;71.16;98552.31;1653761;86;25990;-85
2022/06/02 13:16:52;;;;;;;;;;;;;;;23.34;70.81;98551.08;1654562;86;24448;-88
2022/06/02 13:19:55;;;;;;;;;;;;;;;23.47;70.62;98549.92;1652667;86;20460;-89
2022/06/02 13:22:40;;;;;;;;;;;;;;;23.39;69.47;98543.84;1653376;85;25074;-88
2022/06/02 13:25:19;;;;;;;;;;;;;;;23.09;67.85;98555.02;1653628;86;22408;-85
2022/06/02 13:28:03;;;;;;;;;;;;;;;23.16;67.80;98555.45;1652812;85;26067;-86
2022/06/02 13:30:43;;;;;;;;;;;;;;;23.24;67.45;98556.67;1652967;85;25189;-85
2022/06/02 13:33:23;;;;;;;;;;;;;;;23.12;66.45;98558.67;1654025;86;20230;-85